sensor_id;sensor_type;location;lat;lon;timestamp;P1;durP1;ratioP1;P2;durP2;ratioP2
25187;SDS011;13141;50.414;8.050;2023-08-20T00:01:32;0.10;;;0.10;;
25187;SDS011;13141;50.414;8.050;2023-08-20T00:03:58;0.10;;;0.10;;
25187;SDS011;13141;50.414;8.050;2023-08-20T00:06:24;0.20;;;0.20;;
25187;SDS011;13141;50.414;8.050;2023-08-20T00:08:52;0.20;;;0.20;;
25187;SDS011;13141;50.414;8.050;2023-08-20T00:11:18;0.20;;;0.20;;
25187;SDS011;13141;50.414;8.050;2023-08-20T00:13:43;0.08;;;0.08;;
25187;SDS011;13141;50.414;8.050;2023-08-20T00:16:09;0.20;;;0.20;;
25187;SDS011;13141;50.414;8.050;2023-08-20T00:18:36;0.10;;;0.10;;
25187;SDS011;13141;50.414;8.050;2023-08-20T00:21:03;0.20;;;0.20;;
25187;SDS011;13141;50.414;8.050;2023-08-20T00:23:29;0.10;;;0.10;;
25187;SDS011;13141;50.414;8.050;2023-08-20T00:25:59;0.20;;;0.20;;
25187;SDS011;13141;50.414;8.050;2023-08-20T00:28:28;0.10;;;0.10;;
25187;SDS011;13141;50.414;8.050;2023-08-20T00:30:55;0.20;;;0.20;;
25187;SDS011;13141;50.414;8.050;2023-08-20T00:33:24;0.20;;;0.20;;
25187;SDS011;13141;50.414;8.050;2023-08-20T00:35:50;0.15;;;0.15;;
25187;SDS011;13141;50.414;8.050;2023-08-20T00:38:16;0.15;;;0.15;;
25187;SDS011;13141;50.414;8.050;2023-08-20T00:40:47;0.20;;;0.20;;
25187;SDS011;13141;50.414;8.050;2023-08-20T00:43:14;0.10;;;0.10;;
25187;SDS011;13141;50.414;8.050;2023-08-20T00:45:40;0.10;;;0.10;;
25187;SDS011;13141;50.414;8.050;2023-08-20T00:48:09;0.13;;;0.13;;
25187;SDS011;13141;50.414;8.050;2023-08-20T00:50:36;0.15;;;0.15;;
25187;SDS011;13141;50.414;8.050;2023-08-20T00:53:08;0.10;;;0.10;;
25187;SDS011;13141;50.414;8.050;2023-08-20T00:55:41;0.20;;;0.20;;
25187;SDS011;13141;50.414;8.050;2023-08-20T00:58:10;0.10;;;0.10;;
25187;SDS011;13141;50.414;8.050;2023-08-20T01:03:22;0.20;;;0.20;;
25187;SDS011;13141;50.414;8.050;2023-08-20T01:05:53;0.20;;;0.20;;
25187;SDS011;13141;50.414;8.050;2023-08-20T01:08:28;0.20;;;0.20;;
25187;SDS011;13141;50.414;8.050;2023-08-20T01:11:03;0.10;;;0.10;;
25187;SDS011;13141;50.414;8.050;2023-08-20T01:13:35;0.10;;;0.10;;
25187;SDS011;13141;50.414;8.050;2023-08-20T01:16:07;0.10;;;0.10;;
25187;SDS011;13141;50.414;8.050;2023-08-20T01:18:35;0.10;;;0.10;;
25187;SDS011;13141;50.414;8.050;2023-08-20T01:21:10;0.20;;;0.20;;
25187;SDS011;13141;50.414;8.050;2023-08-20T01:24:01;0.20;;;0.20;;
25187;SDS011;13141;50.414;8.050;2023-08-20T01:26:49;0.20;;;0.20;;
25187;SDS011;13141;50.414;8.050;2023-08-20T01:29:27;0.10;;;0.10;;
25187;SDS011;13141;50.414;8.050;2023-08-20T01:31:53;0.15;;;0.15;;
25187;SDS011;13141;50.414;8.050;2023-08-20T01:34:20;0.20;;;0.20;;
25187;SDS011;13141;50.414;8.050;2023-08-20T01:36:49;0.22;;;0.22;;
25187;SDS011;13141;50.414;8.050;2023-08-20T01:39:17;0.17;;;0.17;;
25187;SDS011;13141;50.414;8.050;2023-08-20T01:41:43;0.10;;;0.10;;
25187;SDS011;13141;50.414;8.050;2023-08-20T01:44:12;0.10;;;0.10;;
25187;SDS011;13141;50.414;8.050;2023-08-20T01:46:41;0.10;;;0.10;;
25187;SDS011;13141;50.414;8.050;2023-08-20T01:49:10;0.10;;;0.10;;
25187;SDS011;13141;50.414;8.050;2023-08-20T01:51:36;0.10;;;0.10;;
25187;SDS011;13141;50.414;8.050;2023-08-20T01:54:02;0.10;;;0.10;;
25187;SDS011;13141;50.414;8.050;2023-08-20T01:56:40;0.10;;;0.10;;
25187;SDS011;13141;50.414;8.050;2023-08-20T01:59:17;0.10;;;0.10;;
25187;SDS011;13141;50.414;8.050;2023-08-20T02:04:32;0.13;;;0.13;;
25187;SDS011;13141;50.414;8.050;2023-08-20T02:07:00;0.10;;;0.10;;
25187;SDS011;13141;50.414;8.050;2023-08-20T02:09:31;0.10;;;0.10;;
25187;SDS011;13141;50.414;8.050;2023-08-20T02:12:00;0.20;;;0.20;;
25187;SDS011;13141;50.414;8.050;2023-08-20T02:14:26;0.20;;;0.20;;
25187;SDS011;13141;50.414;8.050;2023-08-20T02:16:52;0.20;;;0.20;;
25187;SDS011;13141;50.414;8.050;2023-08-20T02:19:25;0.20;;;0.20;;
25187;SDS011;13141;50.414;8.050;2023-08-20T02:21:51;0.20;;;0.20;;
25187;SDS011;13141;50.414;8.050;2023-08-20T02:24:17;0.20;;;0.20;;
25187;SDS011;13141;50.414;8.050;2023-08-20T02:29:19;0.20;;;0.20;;
25187;SDS011;13141;50.414;8.050;2023-08-20T02:31:48;0.20;;;0.20;;
25187;SDS011;13141;50.414;8.050;2023-08-20T02:34:14;0.20;;;0.20;;
25187;SDS011;13141;50.414;8.050;2023-08-20T02:36:41;0.20;;;0.20;;
25187;SDS011;13141;50.414;8.050;2023-08-20T02:39:07;0.20;;;0.20;;
25187;SDS011;13141;50.414;8.050;2023-08-20T02:41:35;0.20;;;0.20;;
25187;SDS011;13141;50.414;8.050;2023-08-20T02:44:00;0.17;;;0.17;;
25187;SDS011;13141;50.414;8.050;2023-08-20T02:46:26;0.20;;;0.20;;
25187;SDS011;13141;50.414;8.050;2023-08-20T02:48:55;0.10;;;0.10;;
25187;SDS011;13141;50.414;8.050;2023-08-20T02:51:21;0.10;;;0.10;;
25187;SDS011;13141;50.414;8.050;2023-08-20T02:53:48;0.10;;;0.10;;
25187;SDS011;13141;50.414;8.050;2023-08-20T02:56:22;0.13;;;0.13;;
25187;SDS011;13141;50.414;8.050;2023-08-20T02:58:48;0.10;;;0.10;;
25187;SDS011;13141;50.414;8.050;2023-08-20T03:01:17;0.20;;;0.20;;
25187;SDS011;13141;50.414;8.050;2023-08-20T03:03:44;0.20;;;0.20;;
25187;SDS011;13141;50.414;8.050;2023-08-20T03:06:10;0.10;;;0.10;;
25187;SDS011;13141;50.414;8.050;2023-08-20T03:08:35;0.20;;;0.20;;
25187;SDS011;13141;50.414;8.050;2023-08-20T03:11:03;0.17;;;0.17;;
25187;SDS011;13141;50.414;8.050;2023-08-20T03:13:34;0.10;;;0.10;;
25187;SDS011;13141;50.414;8.050;2023-08-20T03:16:00;0.10;;;0.10;;
25187;SDS011;13141;50.414;8.050;2023-08-20T03:18:30;0.20;;;0.20;;
25187;SDS011;13141;50.414;8.050;2023-08-20T03:20:56;0.10;;;0.10;;
25187;SDS011;13141;50.414;8.050;2023-08-20T03:23:21;0.20;;;0.20;;
25187;SDS011;13141;50.414;8.050;2023-08-20T03:25:48;0.20;;;0.20;;
25187;SDS011;13141;50.414;8.050;2023-08-20T03:28:21;0.20;;;0.20;;
25187;SDS011;13141;50.414;8.050;2023-08-20T03:30:50;0.15;;;0.15;;
25187;SDS011;13141;50.414;8.050;2023-08-20T03:33:16;0.17;;;0.17;;
25187;SDS011;13141;50.414;8.050;2023-08-20T03:35:45;0.20;;;0.20;;
25187;SDS011;13141;50.414;8.050;2023-08-20T03:38:11;0.20;;;0.20;;
25187;SDS011;13141;50.414;8.050;2023-08-20T03:40:37;0.13;;;0.13;;
25187;SDS011;13141;50.414;8.050;2023-08-20T03:43:05;0.10;;;0.10;;
25187;SDS011;13141;50.414;8.050;2023-08-20T03:45:32;0.20;;;0.20;;
25187;SDS011;13141;50.414;8.050;2023-08-20T03:47:58;0.17;;;0.17;;
25187;SDS011;13141;50.414;8.050;2023-08-20T03:50:24;0.15;;;0.15;;
25187;SDS011;13141;50.414;8.050;2023-08-20T03:52:50;0.20;;;0.20;;
25187;SDS011;13141;50.414;8.050;2023-08-20T03:55:39;0.20;;;0.20;;
25187;SDS011;13141;50.414;8.050;2023-08-20T03:58:26;0.20;;;0.20;;
25187;SDS011;13141;50.414;8.050;2023-08-20T04:04:30;0.15;;;0.15;;
25187;SDS011;13141;50.414;8.050;2023-08-20T04:07:08;0.20;;;0.20;;
25187;SDS011;13141;50.414;8.050;2023-08-20T04:09:39;0.20;;;0.20;;
25187;SDS011;13141;50.414;8.050;2023-08-20T04:12:12;0.20;;;0.20;;
25187;SDS011;13141;50.414;8.050;2023-08-20T04:14:44;0.10;;;0.10;;
25187;SDS011;13141;50.414;8.050;2023-08-20T04:22:52;0.10;;;0.10;;
25187;SDS011;13141;50.414;8.050;2023-08-20T04:25:29;0.10;;;0.10;;
25187;SDS011;13141;50.414;8.050;2023-08-20T04:28:04;0.20;;;0.20;;
25187;SDS011;13141;50.414;8.050;2023-08-20T04:30:39;0.20;;;0.20;;
25187;SDS011;13141;50.414;8.050;2023-08-20T04:33:30;0.10;;;0.10;;
25187;SDS011;13141;50.414;8.050;2023-08-20T04:36:36;0.20;;;0.20;;
25187;SDS011;13141;50.414;8.050;2023-08-20T04:39:24;0.10;;;0.10;;
25187;SDS011;13141;50.414;8.050;2023-08-20T04:44:59;0.20;;;0.20;;
25187;SDS011;13141;50.414;8.050;2023-08-20T04:47:36;0.20;;;0.20;;
25187;SDS011;13141;50.414;8.050;2023-08-20T04:50:35;0.10;;;0.10;;
25187;SDS011;13141;50.414;8.050;2023-08-20T05:04:41;0.20;;;0.20;;
25187;SDS011;13141;50.414;8.050;2023-08-20T05:11:18;0.20;;;0.20;;
25187;SDS011;13141;50.414;8.050;2023-08-20T05:13:51;0.20;;;0.20;;
25187;SDS011;13141;50.414;8.050;2023-08-20T05:16:21;0.20;;;0.20;;
25187;SDS011;13141;50.414;8.050;2023-08-20T05:18:47;0.20;;;0.20;;
25187;SDS011;13141;50.414;8.050;2023-08-20T05:21:14;0.20;;;0.20;;
25187;SDS011;13141;50.414;8.050;2023-08-20T05:23:40;0.20;;;0.20;;
25187;SDS011;13141;50.414;8.050;2023-08-20T05:26:06;0.20;;;0.20;;
25187;SDS011;13141;50.414;8.050;2023-08-20T05:28:32;0.20;;;0.20;;
25187;SDS011;13141;50.414;8.050;2023-08-20T05:30:58;0.20;;;0.20;;
25187;SDS011;13141;50.414;8.050;2023-08-20T05:33:24;0.17;;;0.17;;
25187;SDS011;13141;50.414;8.050;2023-08-20T05:35:52;0.20;;;0.20;;
25187;SDS011;13141;50.414;8.050;2023-08-20T05:38:19;0.10;;;0.10;;
25187;SDS011;13141;50.414;8.050;2023-08-20T05:40:45;0.10;;;0.10;;
25187;SDS011;13141;50.414;8.050;2023-08-20T05:43:11;0.15;;;0.15;;
25187;SDS011;13141;50.414;8.050;2023-08-20T05:45:37;0.20;;;0.20;;
25187;SDS011;13141;50.414;8.050;2023-08-20T05:48:02;0.20;;;0.20;;
25187;SDS011;13141;50.414;8.050;2023-08-20T05:50:28;0.10;;;0.10;;
25187;SDS011;13141;50.414;8.050;2023-08-20T05:52:54;0.15;;;0.15;;
25187;SDS011;13141;50.414;8.050;2023-08-20T05:55:22;0.20;;;0.20;;
25187;SDS011;13141;50.414;8.050;2023-08-20T05:57:48;0.20;;;0.20;;
25187;SDS011;13141;50.414;8.050;2023-08-20T06:00:14;0.20;;;0.20;;
25187;SDS011;13141;50.414;8.050;2023-08-20T06:02:40;0.20;;;0.20;;
25187;SDS011;13141;50.414;8.050;2023-08-20T06:05:06;0.25;;;0.25;;
25187;SDS011;13141;50.414;8.050;2023-08-20T06:07:33;0.20;;;0.20;;
25187;SDS011;13141;50.414;8.050;2023-08-20T06:09:59;0.15;;;0.15;;
25187;SDS011;13141;50.414;8.050;2023-08-20T06:12:27;0.20;;;0.20;;
25187;SDS011;13141;50.414;8.050;2023-08-20T06:14:53;0.15;;;0.15;;
25187;SDS011;13141;50.414;8.050;2023-08-20T06:17:19;0.20;;;0.20;;
25187;SDS011;13141;50.414;8.050;2023-08-20T06:19:45;0.20;;;0.20;;
25187;SDS011;13141;50.414;8.050;2023-08-20T06:22:11;0.20;;;0.20;;
25187;SDS011;13141;50.414;8.050;2023-08-20T06:24:37;0.20;;;0.20;;
25187;SDS011;13141;50.414;8.050;2023-08-20T06:27:03;0.10;;;0.10;;
25187;SDS011;13141;50.414;8.050;2023-08-20T06:29:30;0.20;;;0.20;;
25187;SDS011;13141;50.414;8.050;2023-08-20T06:31:56;0.20;;;0.20;;
25187;SDS011;13141;50.414;8.050;2023-08-20T06:34:22;0.20;;;0.20;;
25187;SDS011;13141;50.414;8.050;2023-08-20T06:36:48;0.10;;;0.10;;
25187;SDS011;13141;50.414;8.050;2023-08-20T06:39:14;0.20;;;0.20;;
25187;SDS011;13141;50.414;8.050;2023-08-20T06:41:40;0.20;;;0.20;;
25187;SDS011;13141;50.414;8.050;2023-08-20T06:44:06;0.20;;;0.20;;
25187;SDS011;13141;50.414;8.050;2023-08-20T06:46:33;0.20;;;0.20;;
25187;SDS011;13141;50.414;8.050;2023-08-20T06:49:00;0.20;;;0.20;;
25187;SDS011;13141;50.414;8.050;2023-08-20T06:51:26;0.20;;;0.20;;
25187;SDS011;13141;50.414;8.050;2023-08-20T06:53:52;0.13;;;0.13;;
25187;SDS011;13141;50.414;8.050;2023-08-20T06:56:18;0.10;;;0.10;;
25187;SDS011;13141;50.414;8.050;2023-08-20T06:58:44;0.10;;;0.10;;
25187;SDS011;13141;50.414;8.050;2023-08-20T07:01:09;0.20;;;0.20;;
25187;SDS011;13141;50.414;8.050;2023-08-20T07:03:37;0.20;;;0.20;;
25187;SDS011;13141;50.414;8.050;2023-08-20T07:06:04;0.20;;;0.20;;
25187;SDS011;13141;50.414;8.050;2023-08-20T07:08:30;0.15;;;0.15;;
25187;SDS011;13141;50.414;8.050;2023-08-20T07:10:56;0.10;;;0.10;;
25187;SDS011;13141;50.414;8.050;2023-08-20T07:13:22;0.20;;;0.20;;
25187;SDS011;13141;50.414;8.050;2023-08-20T07:15:48;0.20;;;0.20;;
25187;SDS011;13141;50.414;8.050;2023-08-20T07:18:14;0.15;;;0.15;;
25187;SDS011;13141;50.414;8.050;2023-08-20T07:20:43;0.20;;;0.20;;
25187;SDS011;13141;50.414;8.050;2023-08-20T07:23:09;0.20;;;0.20;;
25187;SDS011;13141;50.414;8.050;2023-08-20T07:25:35;0.10;;;0.10;;
25187;SDS011;13141;50.414;8.050;2023-08-20T07:28:02;0.20;;;0.20;;
25187;SDS011;13141;50.414;8.050;2023-08-20T07:30:28;0.10;;;0.10;;
25187;SDS011;13141;50.414;8.050;2023-08-20T07:32:54;0.22;;;0.22;;
25187;SDS011;13141;50.414;8.050;2023-08-20T07:35:21;0.20;;;0.20;;
25187;SDS011;13141;50.414;8.050;2023-08-20T07:37:49;0.15;;;0.15;;
25187;SDS011;13141;50.414;8.050;2023-08-20T07:40:15;0.10;;;0.10;;
25187;SDS011;13141;50.414;8.050;2023-08-20T07:42:41;0.20;;;0.20;;
25187;SDS011;13141;50.414;8.050;2023-08-20T07:45:08;0.20;;;0.20;;
25187;SDS011;13141;50.414;8.050;2023-08-20T07:47:35;0.10;;;0.10;;
25187;SDS011;13141;50.414;8.050;2023-08-20T07:50:02;0.20;;;0.20;;
25187;SDS011;13141;50.414;8.050;2023-08-20T07:52:28;0.10;;;0.10;;
25187;SDS011;13141;50.414;8.050;2023-08-20T07:54:56;0.20;;;0.20;;
25187;SDS011;13141;50.414;8.050;2023-08-20T07:57:22;0.20;;;0.20;;
25187;SDS011;13141;50.414;8.050;2023-08-20T07:59:48;0.20;;;0.20;;
25187;SDS011;13141;50.414;8.050;2023-08-20T08:02:14;0.20;;;0.20;;
25187;SDS011;13141;50.414;8.050;2023-08-20T08:04:40;0.20;;;0.20;;
25187;SDS011;13141;50.414;8.050;2023-08-20T08:07:06;0.20;;;0.20;;
25187;SDS011;13141;50.414;8.050;2023-08-20T08:09:32;0.25;;;0.25;;
25187;SDS011;13141;50.414;8.050;2023-08-20T08:12:00;0.20;;;0.20;;
25187;SDS011;13141;50.414;8.050;2023-08-20T08:14:26;0.10;;;0.10;;
25187;SDS011;13141;50.414;8.050;2023-08-20T08:16:52;0.10;;;0.10;;
25187;SDS011;13141;50.414;8.050;2023-08-20T08:19:18;0.20;;;0.20;;
25187;SDS011;13141;50.414;8.050;2023-08-20T08:21:44;0.20;;;0.20;;
25187;SDS011;13141;50.414;8.050;2023-08-20T08:24:10;0.20;;;0.20;;
25187;SDS011;13141;50.414;8.050;2023-08-20T08:26:36;0.20;;;0.20;;
25187;SDS011;13141;50.414;8.050;2023-08-20T08:29:05;0.20;;;0.20;;
25187;SDS011;13141;50.414;8.050;2023-08-20T08:31:32;0.10;;;0.10;;
25187;SDS011;13141;50.414;8.050;2023-08-20T08:33:59;0.20;;;0.20;;
25187;SDS011;13141;50.414;8.050;2023-08-20T08:36:27;0.20;;;0.20;;
25187;SDS011;13141;50.414;8.050;2023-08-20T08:38:52;0.20;;;0.20;;
25187;SDS011;13141;50.414;8.050;2023-08-20T08:41:21;0.20;;;0.20;;
25187;SDS011;13141;50.414;8.050;2023-08-20T08:43:47;0.20;;;0.20;;
25187;SDS011;13141;50.414;8.050;2023-08-20T08:46:16;0.20;;;0.20;;
25187;SDS011;13141;50.414;8.050;2023-08-20T08:48:42;0.20;;;0.20;;
25187;SDS011;13141;50.414;8.050;2023-08-20T08:51:10;0.28;;;0.28;;
25187;SDS011;13141;50.414;8.050;2023-08-20T08:53:37;0.20;;;0.20;;
25187;SDS011;13141;50.414;8.050;2023-08-20T08:56:03;0.20;;;0.20;;
25187;SDS011;13141;50.414;8.050;2023-08-20T08:58:29;0.28;;;0.28;;
25187;SDS011;13141;50.414;8.050;2023-08-20T09:00:55;0.20;;;0.20;;
25187;SDS011;13141;50.414;8.050;2023-08-20T09:03:22;0.25;;;0.25;;
25187;SDS011;13141;50.414;8.050;2023-08-20T09:05:48;0.25;;;0.25;;
25187;SDS011;13141;50.414;8.050;2023-08-20T09:08:21;0.20;;;0.20;;
25187;SDS011;13141;50.414;8.050;2023-08-20T09:10:49;0.20;;;0.20;;
25187;SDS011;13141;50.414;8.050;2023-08-20T09:13:16;0.20;;;0.20;;
25187;SDS011;13141;50.414;8.050;2023-08-20T09:15:41;0.20;;;0.20;;
25187;SDS011;13141;50.414;8.050;2023-08-20T09:18:10;0.20;;;0.20;;
25187;SDS011;13141;50.414;8.050;2023-08-20T09:20:38;0.28;;;0.28;;
25187;SDS011;13141;50.414;8.050;2023-08-20T09:23:04;0.20;;;0.20;;
25187;SDS011;13141;50.414;8.050;2023-08-20T09:25:37;0.20;;;0.20;;
25187;SDS011;13141;50.414;8.050;2023-08-20T09:28:03;0.20;;;0.20;;
25187;SDS011;13141;50.414;8.050;2023-08-20T09:30:29;0.30;;;0.30;;
25187;SDS011;13141;50.414;8.050;2023-08-20T09:33:04;0.22;;;0.22;;
25187;SDS011;13141;50.414;8.050;2023-08-20T09:35:31;0.22;;;0.22;;
25187;SDS011;13141;50.414;8.050;2023-08-20T09:38:02;0.30;;;0.30;;
25187;SDS011;13141;50.414;8.050;2023-08-20T09:40:32;0.30;;;0.30;;
25187;SDS011;13141;50.414;8.050;2023-08-20T09:42:58;0.20;;;0.20;;
25187;SDS011;13141;50.414;8.050;2023-08-20T09:45:27;0.30;;;0.30;;
25187;SDS011;13141;50.414;8.050;2023-08-20T09:47:54;0.30;;;0.30;;
25187;SDS011;13141;50.414;8.050;2023-08-20T09:50:21;0.30;;;0.30;;
25187;SDS011;13141;50.414;8.050;2023-08-20T09:52:48;0.30;;;0.30;;
25187;SDS011;13141;50.414;8.050;2023-08-20T09:55:22;0.20;;;0.20;;
25187;SDS011;13141;50.414;8.050;2023-08-20T09:57:51;0.30;;;0.30;;
25187;SDS011;13141;50.414;8.050;2023-08-20T10:00:19;0.30;;;0.30;;
25187;SDS011;13141;50.414;8.050;2023-08-20T10:02:46;0.30;;;0.30;;
25187;SDS011;13141;50.414;8.050;2023-08-20T10:05:13;0.40;;;0.40;;
25187;SDS011;13141;50.414;8.050;2023-08-20T10:07:39;0.30;;;0.30;;
25187;SDS011;13141;50.414;8.050;2023-08-20T10:10:07;0.20;;;0.20;;
25187;SDS011;13141;50.414;8.050;2023-08-20T10:12:36;0.30;;;0.30;;
25187;SDS011;13141;50.414;8.050;2023-08-20T10:15:02;0.20;;;0.20;;
25187;SDS011;13141;50.414;8.050;2023-08-20T10:17:31;0.40;;;0.40;;
25187;SDS011;13141;50.414;8.050;2023-08-20T10:19:58;0.30;;;0.30;;
25187;SDS011;13141;50.414;8.050;2023-08-20T10:22:32;0.28;;;0.28;;
25187;SDS011;13141;50.414;8.050;2023-08-20T10:24:57;0.40;;;0.40;;
25187;SDS011;13141;50.414;8.050;2023-08-20T10:27:24;0.30;;;0.30;;
25187;SDS011;13141;50.414;8.050;2023-08-20T10:29:52;0.20;;;0.20;;
25187;SDS011;13141;50.414;8.050;2023-08-20T10:32:19;0.20;;;0.20;;
25187;SDS011;13141;50.414;8.050;2023-08-20T10:34:49;0.40;;;0.40;;
25187;SDS011;13141;50.414;8.050;2023-08-20T10:37:20;0.20;;;0.20;;
25187;SDS011;13141;50.414;8.050;2023-08-20T10:39:54;0.28;;;0.28;;
25187;SDS011;13141;50.414;8.050;2023-08-20T10:42:25;0.20;;;0.20;;
25187;SDS011;13141;50.414;8.050;2023-08-20T10:45:05;0.30;;;0.30;;
25187;SDS011;13141;50.414;8.050;2023-08-20T10:47:36;0.30;;;0.30;;
25187;SDS011;13141;50.414;8.050;2023-08-20T10:50:02;0.20;;;0.20;;
25187;SDS011;13141;50.414;8.050;2023-08-20T10:52:28;0.20;;;0.20;;
25187;SDS011;13141;50.414;8.050;2023-08-20T10:54:54;0.30;;;0.30;;
25187;SDS011;13141;50.414;8.050;2023-08-20T10:57:21;0.28;;;0.28;;
25187;SDS011;13141;50.414;8.050;2023-08-20T10:59:56;0.30;;;0.30;;
25187;SDS011;13141;50.414;8.050;2023-08-20T11:02:25;0.30;;;0.30;;
25187;SDS011;13141;50.414;8.050;2023-08-20T11:04:53;0.30;;;0.30;;
25187;SDS011;13141;50.414;8.050;2023-08-20T11:07:20;0.30;;;0.30;;
25187;SDS011;13141;50.414;8.050;2023-08-20T11:09:47;0.40;;;0.40;;
25187;SDS011;13141;50.414;8.050;2023-08-20T11:12:14;0.40;;;0.40;;
25187;SDS011;13141;50.414;8.050;2023-08-20T11:14:40;0.30;;;0.30;;
25187;SDS011;13141;50.414;8.050;2023-08-20T11:17:06;0.30;;;0.30;;
25187;SDS011;13141;50.414;8.050;2023-08-20T11:19:33;0.32;;;0.32;;
25187;SDS011;13141;50.414;8.050;2023-08-20T11:22:00;0.30;;;0.30;;
25187;SDS011;13141;50.414;8.050;2023-08-20T11:24:28;0.30;;;0.30;;
25187;SDS011;13141;50.414;8.050;2023-08-20T11:26:54;0.30;;;0.30;;
25187;SDS011;13141;50.414;8.050;2023-08-20T11:29:19;0.30;;;0.30;;
25187;SDS011;13141;50.414;8.050;2023-08-20T11:31:45;0.30;;;0.30;;
25187;SDS011;13141;50.414;8.050;2023-08-20T11:34:12;0.20;;;0.20;;
25187;SDS011;13141;50.414;8.050;2023-08-20T11:36:39;0.30;;;0.30;;
25187;SDS011;13141;50.414;8.050;2023-08-20T11:39:06;0.35;;;0.35;;
25187;SDS011;13141;50.414;8.050;2023-08-20T11:41:36;0.40;;;0.40;;
25187;SDS011;13141;50.414;8.050;2023-08-20T11:44:03;0.30;;;0.30;;
25187;SDS011;13141;50.414;8.050;2023-08-20T11:46:29;0.52;;;0.52;;
25187;SDS011;13141;50.414;8.050;2023-08-20T11:48:58;0.40;;;0.40;;
25187;SDS011;13141;50.414;8.050;2023-08-20T11:51:24;0.40;;;0.40;;
25187;SDS011;13141;50.414;8.050;2023-08-20T11:53:52;0.30;;;0.30;;
25187;SDS011;13141;50.414;8.050;2023-08-20T11:56:17;0.30;;;0.30;;
25187;SDS011;13141;50.414;8.050;2023-08-20T11:58:43;0.40;;;0.40;;
25187;SDS011;13141;50.414;8.050;2023-08-20T12:01:14;0.30;;;0.30;;
25187;SDS011;13141;50.414;8.050;2023-08-20T12:03:43;0.35;;;0.35;;
25187;SDS011;13141;50.414;8.050;2023-08-20T12:06:16;0.30;;;0.30;;
25187;SDS011;13141;50.414;8.050;2023-08-20T12:08:43;0.20;;;0.20;;
25187;SDS011;13141;50.414;8.050;2023-08-20T12:11:10;0.37;;;0.37;;
25187;SDS011;13141;50.414;8.050;2023-08-20T12:13:36;0.37;;;0.37;;
25187;SDS011;13141;50.414;8.050;2023-08-20T12:16:02;0.30;;;0.30;;
25187;SDS011;13141;50.414;8.050;2023-08-20T12:18:28;0.40;;;0.40;;
25187;SDS011;13141;50.414;8.050;2023-08-20T12:20:53;0.30;;;0.30;;
25187;SDS011;13141;50.414;8.050;2023-08-20T12:23:20;0.32;;;0.32;;
25187;SDS011;13141;50.414;8.050;2023-08-20T12:25:49;0.30;;;0.30;;
25187;SDS011;13141;50.414;8.050;2023-08-20T12:28:17;0.30;;;0.30;;
25187;SDS011;13141;50.414;8.050;2023-08-20T12:30:43;0.30;;;0.30;;
25187;SDS011;13141;50.414;8.050;2023-08-20T12:33:09;0.30;;;0.30;;
25187;SDS011;13141;50.414;8.050;2023-08-20T12:35:35;0.20;;;0.20;;
25187;SDS011;13141;50.414;8.050;2023-08-20T12:38:00;0.32;;;0.32;;
25187;SDS011;13141;50.414;8.050;2023-08-20T12:40:26;0.30;;;0.30;;
25187;SDS011;13141;50.414;8.050;2023-08-20T12:42:52;0.25;;;0.25;;
25187;SDS011;13141;50.414;8.050;2023-08-20T12:45:20;0.43;;;0.43;;
25187;SDS011;13141;50.414;8.050;2023-08-20T12:47:46;0.32;;;0.32;;
25187;SDS011;13141;50.414;8.050;2023-08-20T12:50:11;0.40;;;0.40;;
25187;SDS011;13141;50.414;8.050;2023-08-20T12:52:37;0.40;;;0.40;;
25187;SDS011;13141;50.414;8.050;2023-08-20T12:55:03;0.30;;;0.30;;
25187;SDS011;13141;50.414;8.050;2023-08-20T12:57:29;0.30;;;0.30;;
25187;SDS011;13141;50.414;8.050;2023-08-20T12:59:55;0.40;;;0.40;;
25187;SDS011;13141;50.414;8.050;2023-08-20T13:02:22;0.30;;;0.30;;
25187;SDS011;13141;50.414;8.050;2023-08-20T13:04:49;0.40;;;0.40;;
25187;SDS011;13141;50.414;8.050;2023-08-20T13:07:15;0.30;;;0.30;;
25187;SDS011;13141;50.414;8.050;2023-08-20T13:09:41;0.25;;;0.25;;
25187;SDS011;13141;50.414;8.050;2023-08-20T13:12:08;0.22;;;0.22;;
25187;SDS011;13141;50.414;8.050;2023-08-20T13:14:35;0.60;;;0.60;;
25187;SDS011;13141;50.414;8.050;2023-08-20T13:17:01;0.50;;;0.50;;
25187;SDS011;13141;50.414;8.050;2023-08-20T13:19:32;0.30;;;0.30;;
25187;SDS011;13141;50.414;8.050;2023-08-20T13:21:57;0.40;;;0.40;;
25187;SDS011;13141;50.414;8.050;2023-08-20T13:24:23;0.35;;;0.35;;
25187;SDS011;13141;50.414;8.050;2023-08-20T13:26:49;0.30;;;0.30;;
25187;SDS011;13141;50.414;8.050;2023-08-20T13:29:16;0.35;;;0.35;;
25187;SDS011;13141;50.414;8.050;2023-08-20T13:31:41;0.40;;;0.40;;
25187;SDS011;13141;50.414;8.050;2023-08-20T13:34:07;0.30;;;0.30;;
25187;SDS011;13141;50.414;8.050;2023-08-20T13:36:34;0.30;;;0.30;;
25187;SDS011;13141;50.414;8.050;2023-08-20T13:39:00;0.20;;;0.20;;
25187;SDS011;13141;50.414;8.050;2023-08-20T13:41:26;0.45;;;0.45;;
25187;SDS011;13141;50.414;8.050;2023-08-20T13:43:52;0.30;;;0.30;;
25187;SDS011;13141;50.414;8.050;2023-08-20T13:46:18;0.40;;;0.40;;
25187;SDS011;13141;50.414;8.050;2023-08-20T13:48:44;0.40;;;0.40;;
25187;SDS011;13141;50.414;8.050;2023-08-20T13:51:10;0.30;;;0.30;;
25187;SDS011;13141;50.414;8.050;2023-08-20T13:53:37;0.25;;;0.25;;
25187;SDS011;13141;50.414;8.050;2023-08-20T13:56:03;0.30;;;0.30;;
25187;SDS011;13141;50.414;8.050;2023-08-20T13:58:29;0.30;;;0.30;;
25187;SDS011;13141;50.414;8.050;2023-08-20T14:00:54;0.50;;;0.50;;
25187;SDS011;13141;50.414;8.050;2023-08-20T14:03:20;0.50;;;0.50;;
25187;SDS011;13141;50.414;8.050;2023-08-20T14:05:46;0.37;;;0.37;;
25187;SDS011;13141;50.414;8.050;2023-08-20T14:08:12;0.40;;;0.40;;
25187;SDS011;13141;50.414;8.050;2023-08-20T14:10:39;0.40;;;0.40;;
25187;SDS011;13141;50.414;8.050;2023-08-20T14:13:05;0.45;;;0.45;;
25187;SDS011;13141;50.414;8.050;2023-08-20T14:15:31;0.37;;;0.37;;
25187;SDS011;13141;50.414;8.050;2023-08-20T14:17:56;0.20;;;0.20;;
25187;SDS011;13141;50.414;8.050;2023-08-20T14:20:22;0.30;;;0.30;;
25187;SDS011;13141;50.414;8.050;2023-08-20T14:22:48;0.30;;;0.30;;
25187;SDS011;13141;50.414;8.050;2023-08-20T14:25:14;0.50;;;0.50;;
25187;SDS011;13141;50.414;8.050;2023-08-20T14:27:41;0.40;;;0.40;;
25187;SDS011;13141;50.414;8.050;2023-08-20T14:30:07;0.62;;;0.62;;
25187;SDS011;13141;50.414;8.050;2023-08-20T14:32:34;0.40;;;0.40;;
25187;SDS011;13141;50.414;8.050;2023-08-20T14:34:59;0.43;;;0.43;;
25187;SDS011;13141;50.414;8.050;2023-08-20T14:37:25;0.50;;;0.50;;
25187;SDS011;13141;50.414;8.050;2023-08-20T14:39:51;0.40;;;0.40;;
25187;SDS011;13141;50.414;8.050;2023-08-20T14:42:17;0.45;;;0.45;;
25187;SDS011;13141;50.414;8.050;2023-08-20T14:44:44;0.50;;;0.50;;
25187;SDS011;13141;50.414;8.050;2023-08-20T14:47:09;0.52;;;0.52;;
25187;SDS011;13141;50.414;8.050;2023-08-20T14:49:35;0.50;;;0.50;;
25187;SDS011;13141;50.414;8.050;2023-08-20T14:52:01;0.40;;;0.40;;
25187;SDS011;13141;50.414;8.050;2023-08-20T14:54:26;0.50;;;0.50;;
25187;SDS011;13141;50.414;8.050;2023-08-20T14:56:52;0.47;;;0.47;;
25187;SDS011;13141;50.414;8.050;2023-08-20T14:59:18;0.35;;;0.35;;
25187;SDS011;13141;50.414;8.050;2023-08-20T15:01:45;0.40;;;0.40;;
25187;SDS011;13141;50.414;8.050;2023-08-20T15:04:11;0.30;;;0.30;;
25187;SDS011;13141;50.414;8.050;2023-08-20T15:06:37;0.55;;;0.55;;
25187;SDS011;13141;50.414;8.050;2023-08-20T15:09:03;0.50;;;0.50;;
25187;SDS011;13141;50.414;8.050;2023-08-20T15:11:29;0.32;;;0.32;;
25187;SDS011;13141;50.414;8.050;2023-08-20T15:13:54;0.35;;;0.35;;
25187;SDS011;13141;50.414;8.050;2023-08-20T15:16:20;0.30;;;0.30;;
25187;SDS011;13141;50.414;8.050;2023-08-20T15:18:48;0.40;;;0.40;;
25187;SDS011;13141;50.414;8.050;2023-08-20T15:21:13;0.40;;;0.40;;
25187;SDS011;13141;50.414;8.050;2023-08-20T15:23:39;0.37;;;0.37;;
25187;SDS011;13141;50.414;8.050;2023-08-20T15:26:05;0.40;;;0.40;;
25187;SDS011;13141;50.414;8.050;2023-08-20T15:28:31;0.47;;;0.47;;